createdAt,value
2022-07-26T00:01:11.445Z,97779.81
2022-07-26T00:03:44.759Z,97782.44
2022-07-26T00:06:19.075Z,97778.09
2022-07-26T00:08:52.782Z,97773.66
2022-07-26T00:11:27.061Z,97781.41
2022-07-26T00:14:00.567Z,97788.34
2022-07-26T00:16:36.127Z,97789.16
2022-07-26T00:19:09.865Z,97790.06
2022-07-26T00:21:43.387Z,97787.47
2022-07-26T00:24:16.491Z,97777.03
2022-07-26T00:26:49.569Z,97783.94
2022-07-26T00:29:22.684Z,97780.44
2022-07-26T00:31:57.500Z,97782.16
2022-07-26T00:34:30.713Z,97785.69
2022-07-26T00:37:03.821Z,97785.66
2022-07-26T00:39:36.963Z,97787.31
2022-07-26T00:42:10.043Z,97790.78
2022-07-26T00:44:46.182Z,97781.31
2022-07-26T00:47:21.325Z,97791.72
2022-07-26T00:49:55.824Z,97790.78
2022-07-26T00:52:29.380Z,97789.97
2022-07-26T00:55:03.354Z,97789.97
2022-07-26T00:57:37.036Z,97789.16
2022-07-26T01:00:15.099Z,97789.16
2022-07-26T01:02:49.996Z,97794.31
2022-07-26T01:05:24.227Z,97791.59
2022-07-26T01:07:57.997Z,97790.75
2022-07-26T01:10:31.143Z,97788.09
2022-07-26T01:13:04.325Z,97800.34
2022-07-26T01:15:37.602Z,97794.19
2022-07-26T01:18:12.150Z,97796.81
2022-07-26T01:20:45.692Z,97792.47
2022-07-26T01:23:21.018Z,97790.78
2022-07-26T01:25:54.136Z,97788.97
2022-07-26T01:28:27.488Z,97784.72
2022-07-26T01:31:00.601Z,97787.22
2022-07-26T01:33:34.937Z,97780.38
2022-07-26T01:36:09.119Z,97770.78
2022-07-26T01:38:43.964Z,97785.53
2022-07-26T01:41:17.396Z,97793.34
2022-07-26T01:43:55.948Z,97799.34
2022-07-26T01:46:29.541Z,97801.97
2022-07-26T01:49:03.302Z,97813.25
2022-07-26T01:51:36.905Z,97835.72
2022-07-26T01:54:12.297Z,97831.94
2022-07-26T01:56:45.546Z,97827.34
2022-07-26T01:59:18.620Z,97841.75
2022-07-26T02:01:52.030Z,97839.91
2022-07-26T02:04:42.730Z,97848.47
2022-07-26T02:07:15.802Z,97850.84
2022-07-26T02:09:50.257Z,97845.56
2022-07-26T02:12:23.474Z,97848.88
2022-07-26T02:14:56.759Z,97852.41
2022-07-26T02:17:29.874Z,97854.09
2022-07-26T02:20:03.181Z,97853.22
2022-07-26T02:22:36.867Z,97865.06
2022-07-26T02:25:11.633Z,97858.22
2022-07-26T02:27:44.971Z,97857.47
2022-07-26T02:30:18.083Z,97839.28
2022-07-26T02:32:51.307Z,97838.44
2022-07-26T02:35:24.421Z,97818.50
2022-07-26T02:38:02.573Z,97796.78
2022-07-26T02:40:38.494Z,97801.16
2022-07-26T02:43:12.419Z,97806.41
2022-07-26T02:45:45.525Z,97802.13
2022-07-26T02:48:34.238Z,97808.09
2022-07-26T02:51:08.924Z,97799.44
2022-07-26T02:53:42.004Z,97803.75
2022-07-26T02:56:16.466Z,97803.69
2022-07-26T02:58:49.531Z,97797.66
2022-07-26T03:01:22.850Z,97807.22
2022-07-26T03:03:56.058Z,97814.19
2022-07-26T03:06:29.158Z,97816.06
2022-07-26T03:09:02.262Z,97817.78
2022-07-26T03:11:36.730Z,97822.03
2022-07-26T03:14:10.419Z,97813.38
2022-07-26T03:16:43.830Z,97822.88
2022-07-26T03:19:16.916Z,97827.28
2022-07-26T03:21:50.003Z,97829.97
2022-07-26T03:24:23.071Z,97824.84
2022-07-26T03:26:58.734Z,97824.91
2022-07-26T03:29:31.879Z,97839.53
2022-07-26T03:32:05.314Z,97834.44
2022-07-26T03:34:38.493Z,97836.13
2022-07-26T03:37:11.581Z,97834.34
2022-07-26T03:39:44.696Z,97836.03
2022-07-26T03:42:19.170Z,97838.63
2022-07-26T03:44:52.231Z,97832.47
2022-07-26T03:47:25.349Z,97832.44
2022-07-26T03:49:58.469Z,97828.97
2022-07-26T03:52:31.564Z,97829.78
2022-07-26T03:55:25.581Z,97836.69
2022-07-26T03:57:59.040Z,97835.75
2022-07-26T04:00:32.160Z,97844.44
2022-07-26T04:03:05.335Z,97841.88
2022-07-26T04:05:38.443Z,97841.00
2022-07-26T04:08:11.611Z,97840.19
2022-07-26T04:10:47.143Z,97845.41
2022-07-26T04:13:23.948Z,97853.13
2022-07-26T04:15:57.056Z,97847.00
2022-07-26T04:18:30.323Z,97840.13
2022-07-26T04:21:03.403Z,97839.22
2022-07-26T04:23:36.559Z,97836.59
2022-07-26T04:26:09.829Z,97846.16
2022-07-26T04:28:44.594Z,97847.00
2022-07-26T04:31:18.190Z,97853.94
2022-07-26T04:33:51.595Z,97850.53
2022-07-26T04:36:24.723Z,97851.44
2022-07-26T04:38:57.819Z,97852.25
2022-07-26T04:41:30.943Z,97854.09
2022-07-26T04:44:06.307Z,97847.06
2022-07-26T04:46:44.884Z,97861.00
2022-07-26T04:49:18.322Z,97862.78
2022-07-26T04:51:54.074Z,97862.75
2022-07-26T04:54:30.645Z,97864.28
2022-07-26T04:57:03.769Z,97867.81
2022-07-26T04:59:38.209Z,97864.38
2022-07-26T05:02:11.397Z,97861.84
2022-07-26T05:04:44.558Z,97863.56
2022-07-26T05:07:17.721Z,97859.91
2022-07-26T05:09:50.776Z,97859.19
2022-07-26T05:12:23.868Z,97860.97
2022-07-26T05:14:58.285Z,97856.72
2022-07-26T05:17:31.773Z,97863.56
2022-07-26T05:20:11.034Z,97861.78
2022-07-26T05:22:45.609Z,97870.44
2022-07-26T05:25:18.768Z,97872.38
2022-07-26T05:27:51.884Z,97866.44
2022-07-26T05:30:26.556Z,97867.06
2022-07-26T05:33:00.081Z,97858.91
2022-07-26T05:35:33.412Z,97857.53
2022-07-26T05:38:06.519Z,97858.66
2022-07-26T05:40:39.635Z,97853.06
2022-07-26T05:43:12.771Z,97857.91
2022-07-26T05:45:47.312Z,97856.47
2022-07-26T05:48:20.558Z,97870.56
2022-07-26T05:50:53.679Z,97869.69
2022-07-26T05:53:26.799Z,97860.97
2022-07-26T05:55:59.906Z,97868.84
2022-07-26T05:58:33.007Z,97862.59
2022-07-26T06:01:07.801Z,97856.41
2022-07-26T06:03:40.890Z,97859.75
2022-07-26T06:06:13.988Z,97861.34
2022-07-26T06:08:47.110Z,97859.28
2022-07-26T06:11:20.342Z,97858.28
2022-07-26T06:13:56.662Z,97857.94
2022-07-26T06:16:31.255Z,97846.50
2022-07-26T06:19:04.464Z,97852.25
2022-07-26T06:21:37.579Z,97858.09
2022-07-26T06:24:11.112Z,97856.09
2022-07-26T06:26:44.601Z,97855.13
2022-07-26T06:29:17.704Z,97852.19
2022-07-26T06:31:52.379Z,97856.38
2022-07-26T06:34:25.777Z,97863.31
2022-07-26T06:36:59.123Z,97870.00
2022-07-26T06:39:32.295Z,97866.25
2022-07-26T06:42:05.646Z,97873.41
2022-07-26T06:44:38.785Z,97869.94
2022-07-26T06:47:13.226Z,97863.28
2022-07-26T06:49:46.314Z,97871.25
2022-07-26T06:52:19.494Z,97870.63
2022-07-26T06:54:52.631Z,97863.09
2022-07-26T06:57:25.804Z,97866.47
2022-07-26T06:59:58.934Z,97866.19
2022-07-26T07:02:33.464Z,97865.94
2022-07-26T07:05:08.000Z,97860.88
2022-07-26T07:07:42.188Z,97863.22
2022-07-26T07:10:16.162Z,97872.16
2022-07-26T07:12:52.219Z,97863.88
2022-07-26T07:15:25.277Z,97865.22
2022-07-26T07:17:59.745Z,97862.09
2022-07-26T07:20:34.316Z,97865.34
2022-07-26T07:23:07.743Z,97856.47
2022-07-26T07:25:40.835Z,97856.94
2022-07-26T07:28:17.927Z,97853.00
2022-07-26T07:30:52.436Z,97860.22
2022-07-26T07:33:26.845Z,97847.72
2022-07-26T07:36:10.259Z,97847.84
2022-07-26T07:38:43.334Z,97849.78
2022-07-26T07:41:18.878Z,97852.59
2022-07-26T07:43:51.955Z,97848.84
2022-07-26T07:46:25.357Z,97854.91
2022-07-26T07:49:00.539Z,97856.44
2022-07-26T07:51:34.344Z,97846.47
2022-07-26T07:54:09.469Z,97846.41
2022-07-26T07:56:42.656Z,97839.56
2022-07-26T07:59:16.583Z,97843.94
2022-07-26T08:01:49.785Z,97844.97
2022-07-26T08:04:24.409Z,97841.03
2022-07-26T08:06:57.797Z,97845.56
2022-07-26T08:09:30.908Z,97847.47
2022-07-26T08:12:07.571Z,97852.50
2022-07-26T08:14:41.445Z,97847.03
2022-07-26T08:17:14.673Z,97850.97
2022-07-26T08:19:49.655Z,97858.06
2022-07-26T08:22:22.775Z,97843.00
2022-07-26T08:24:56.267Z,97851.84
2022-07-26T08:27:29.344Z,97848.94
2022-07-26T08:30:02.708Z,97862.09
2022-07-26T08:32:35.768Z,97849.81
2022-07-26T08:35:17.751Z,97860.00
2022-07-26T08:37:54.479Z,97856.13
2022-07-26T08:40:27.777Z,97860.28
2022-07-26T08:43:02.403Z,97857.97
2022-07-26T08:45:35.719Z,97861.78
2022-07-26T08:48:18.103Z,97856.59
2022-07-26T08:50:54.132Z,97857.19
2022-07-26T08:53:27.320Z,97856.69
2022-07-26T08:56:07.960Z,97847.03
2022-07-26T08:58:42.152Z,97842.19
2022-07-26T09:01:16.096Z,97857.78
2022-07-26T09:03:50.679Z,97859.59
2022-07-26T09:06:28.179Z,97863.38
2022-07-26T09:09:13.027Z,97860.66
2022-07-26T09:11:46.096Z,97864.72
2022-07-26T09:14:19.289Z,97871.56
2022-07-26T09:17:00.075Z,97873.03
2022-07-26T09:19:34.587Z,97862.00
2022-07-26T09:22:12.169Z,97860.97
2022-07-26T09:24:47.587Z,97851.53
2022-07-26T09:27:24.116Z,97854.06
2022-07-26T09:30:08.334Z,97856.53
2022-07-26T09:32:41.605Z,97847.94
2022-07-26T09:35:45.983Z,97851.94
2022-07-26T09:38:15.914Z,97860.78
2022-07-26T09:40:50.731Z,97856.59
2022-07-26T09:43:24.966Z,97865.78
2022-07-26T09:46:07.330Z,97865.34
2022-07-26T09:49:08.222Z,97857.84
2022-07-26T09:51:40.748Z,97861.84
2022-07-26T09:54:21.721Z,97862.44
2022-07-26T09:56:54.824Z,97861.84
2022-07-26T09:59:29.686Z,97869.53
2022-07-26T10:02:03.097Z,97877.22
2022-07-26T10:04:36.879Z,97863.16
2022-07-26T10:07:10.682Z,97881.00
2022-07-26T10:09:54.466Z,97879.91
2022-07-26T10:12:32.961Z,97873.16
2022-07-26T10:15:07.465Z,97869.84
2022-07-26T10:17:43.321Z,97881.75
2022-07-26T10:20:51.779Z,97871.34
2022-07-26T10:23:40.261Z,97874.94
2022-07-26T10:26:45.566Z,97869.84
2022-07-26T10:29:36.676Z,97871.75
2022-07-26T10:32:20.177Z,97876.16
2022-07-26T10:34:53.327Z,97880.47
2022-07-26T10:37:29.602Z,97874.00
2022-07-26T10:40:25.448Z,97875.34
2022-07-26T10:46:25.009Z,97877.00
2022-07-26T10:48:59.366Z,97877.97
2022-07-26T10:51:36.749Z,97873.78
2022-07-26T10:54:13.541Z,97878.28
2022-07-26T10:56:47.021Z,97888.94
2022-07-26T10:59:54.793Z,97891.44
2022-07-26T11:02:32.283Z,97878.53
2022-07-26T11:05:13.661Z,97876.25
2022-07-26T11:07:56.470Z,97879.06
2022-07-26T11:10:33.196Z,97878.94
2022-07-26T11:13:13.476Z,97862.25
2022-07-26T11:15:51.729Z,97863.94
2022-07-26T11:18:30.651Z,97867.56
2022-07-26T11:21:11.985Z,97859.91
2022-07-26T11:23:46.762Z,97869.28
2022-07-26T11:26:22.338Z,97871.00
2022-07-26T11:28:58.773Z,97865.84
2022-07-26T11:31:50.330Z,97862.38
2022-07-26T11:34:28.116Z,97864.31
2022-07-26T11:37:03.846Z,97867.09
2022-07-26T11:39:37.641Z,97865.47
2022-07-26T11:42:13.168Z,97859.47
2022-07-26T11:44:48.690Z,97870.81
2022-07-26T11:47:26.419Z,97870.84
2022-07-26T11:50:14.306Z,97866.50
2022-07-26T11:52:49.884Z,97867.47
2022-07-26T11:55:28.550Z,97869.09
2022-07-26T11:58:06.780Z,97870.94
2022-07-26T12:00:40.001Z,97869.13
2022-07-26T12:03:14.524Z,97865.56
2022-07-26T12:06:04.546Z,97869.13
2022-07-26T12:08:46.097Z,97876.28
2022-07-26T12:11:21.467Z,97875.25
2022-07-26T12:13:58.663Z,97868.16
2022-07-26T12:16:40.603Z,97862.19
2022-07-26T12:19:30.849Z,97866.66
2022-07-26T12:22:12.206Z,97870.28
2022-07-26T12:24:56.891Z,97860.78
2022-07-26T12:27:31.532Z,97863.56
2022-07-26T12:30:17.765Z,97868.84
2022-07-26T12:32:54.486Z,97875.75
2022-07-26T12:35:35.322Z,97864.47
2022-07-26T12:38:08.624Z,97855.88
2022-07-26T12:40:42.634Z,97866.28
2022-07-26T12:43:15.818Z,97861.91
2022-07-26T12:45:48.939Z,97850.59
2022-07-26T12:48:22.020Z,97855.81
2022-07-26T12:50:58.963Z,97863.59
2022-07-26T12:53:37.457Z,97867.91
2022-07-26T12:56:10.625Z,97865.31
2022-07-26T12:58:45.529Z,97846.72
2022-07-26T13:01:18.679Z,97854.75
2022-07-26T13:03:52.044Z,97846.69
2022-07-26T13:06:26.605Z,97851.91
2022-07-26T13:09:00.783Z,97838.63
2022-07-26T13:11:33.875Z,97849.19
2022-07-26T13:14:07.128Z,97839.56
2022-07-26T13:16:40.412Z,97832.69
2022-07-26T13:19:13.897Z,97852.72
2022-07-26T13:21:52.766Z,97843.81
2022-07-26T13:24:28.095Z,97834.38
2022-07-26T13:27:03.267Z,97837.78
2022-07-26T13:29:37.671Z,97830.13
2022-07-26T13:32:10.822Z,97824.91
2022-07-26T13:34:44.409Z,97832.66
2022-07-26T13:37:18.831Z,97834.41
2022-07-26T13:39:51.986Z,97825.78
2022-07-26T13:42:25.045Z,97824.81
2022-07-26T13:44:58.092Z,97827.22
2022-07-26T13:47:31.123Z,97830.75
2022-07-26T13:50:04.432Z,97824.66
2022-07-26T13:52:41.033Z,97829.06
2022-07-26T13:55:14.108Z,97824.78
2022-07-26T13:57:55.895Z,97827.44
2022-07-26T14:00:30.878Z,97828.47
2022-07-26T14:03:04.392Z,97826.72
2022-07-26T14:05:37.508Z,97816.22
2022-07-26T14:08:11.943Z,97824.03
2022-07-26T14:10:45.094Z,97824.91
2022-07-26T14:13:18.194Z,97818.78
2022-07-26T14:15:51.419Z,97831.91
2022-07-26T14:18:24.479Z,97820.53
2022-07-26T14:20:57.612Z,97817.06
2022-07-26T14:23:32.132Z,97820.56
2022-07-26T14:26:05.448Z,97823.25
2022-07-26T14:28:38.526Z,97818.88
2022-07-26T14:31:11.825Z,97817.97
2022-07-26T14:33:45.112Z,97822.19
2022-07-26T14:36:18.284Z,97818.63
2022-07-26T14:38:52.717Z,97817.63
2022-07-26T14:41:25.806Z,97823.53
2022-07-26T14:44:01.293Z,97826.84
2022-07-26T14:46:34.428Z,97816.38
2022-07-26T14:49:07.582Z,97817.28
2022-07-26T14:51:41.019Z,97822.63
2022-07-26T14:54:16.274Z,97834.09
2022-07-26T14:56:49.506Z,97818.47
2022-07-26T14:59:22.707Z,97824.47
2022-07-26T15:01:55.825Z,97813.13
2022-07-26T15:04:28.986Z,97816.78
2022-07-26T15:07:02.269Z,97818.59
2022-07-26T15:09:36.657Z,97816.84
2022-07-26T15:12:12.354Z,97807.19
2022-07-26T15:14:46.144Z,97809.09
2022-07-26T15:17:19.564Z,97810.81
2022-07-26T15:19:52.710Z,97805.53
2022-07-26T15:22:26.528Z,97807.28
2022-07-26T15:25:00.971Z,97803.84
2022-07-26T15:27:34.203Z,97804.75
2022-07-26T15:30:13.746Z,97804.66
2022-07-26T15:32:48.291Z,97802.72
2022-07-26T15:35:22.137Z,97800.94
2022-07-26T15:37:55.325Z,97800.03
2022-07-26T15:40:30.020Z,97801.03
2022-07-26T15:43:03.121Z,97797.41
2022-07-26T15:45:37.583Z,97801.09
2022-07-26T15:48:16.996Z,97800.34
2022-07-26T15:50:52.642Z,97795.88
2022-07-26T15:53:25.786Z,97807.38
2022-07-26T15:56:01.018Z,97795.25
2022-07-26T15:58:34.099Z,97793.56
2022-07-26T16:01:08.425Z,97794.31
2022-07-26T16:03:41.653Z,97795.09
2022-07-26T16:06:14.753Z,97800.44
2022-07-26T16:09:13.887Z,97790.00
2022-07-26T16:11:42.380Z,97790.75
2022-07-26T16:14:15.576Z,97785.53
2022-07-26T16:16:48.704Z,97787.25
2022-07-26T16:19:21.945Z,97783.78
2022-07-26T16:21:55.050Z,97786.50
2022-07-26T16:24:28.176Z,97777.78
2022-07-26T16:27:02.659Z,97776.91
2022-07-26T16:29:35.813Z,97782.16
2022-07-26T16:32:09.623Z,97771.50
2022-07-26T16:34:42.772Z,97774.25
2022-07-26T16:37:15.946Z,97769.06
2022-07-26T16:39:49.018Z,97769.91
2022-07-26T16:42:23.570Z,97768.16
2022-07-26T16:44:56.676Z,97778.69
2022-07-26T16:47:29.749Z,97775.25
2022-07-26T16:50:02.944Z,97769.19
2022-07-26T16:52:36.078Z,97766.72
2022-07-26T16:55:11.249Z,97773.78
2022-07-26T16:57:45.663Z,97774.72
2022-07-26T17:00:22.016Z,97771.31
2022-07-26T17:02:55.448Z,97771.34
2022-07-26T17:05:28.618Z,97767.03
2022-07-26T17:08:01.692Z,97768.78
2022-07-26T17:10:34.771Z,97762.75
2022-07-26T17:13:09.401Z,97760.19
2022-07-26T17:15:42.542Z,97768.94
2022-07-26T17:18:15.614Z,97762.03
2022-07-26T17:20:48.742Z,97763.81
2022-07-26T17:23:22.239Z,97765.59
2022-07-26T17:25:55.414Z,97769.09
2022-07-26T17:28:29.866Z,97761.25
2022-07-26T17:31:02.968Z,97763.00
2022-07-26T17:33:36.070Z,97762.94
2022-07-26T17:36:22.776Z,97765.66
2022-07-26T17:38:56.861Z,97765.69
2022-07-26T17:41:33.122Z,97760.47
2022-07-26T17:44:08.137Z,97757.00
2022-07-26T17:46:41.620Z,97764.00
2022-07-26T17:49:15.670Z,97765.75
2022-07-26T17:51:50.901Z,97761.38
2022-07-26T17:54:25.223Z,97757.03
2022-07-26T17:56:58.688Z,97764.94
2022-07-26T17:59:34.193Z,97766.69
2022-07-26T18:02:07.353Z,97776.31
2022-07-26T18:04:40.568Z,97767.59
2022-07-26T18:07:14.723Z,97772.84
2022-07-26T18:09:47.764Z,97772.00
2022-07-26T18:12:20.925Z,97768.53
2022-07-26T18:14:55.345Z,97762.44
2022-07-26T18:17:28.425Z,97764.19
2022-07-26T18:20:01.527Z,97771.16
2022-07-26T18:22:34.639Z,97754.63
2022-07-26T18:25:08.538Z,97767.69
2022-07-26T18:27:42.252Z,97762.50
2022-07-26T18:30:17.051Z,97765.09
2022-07-26T18:32:50.117Z,97765.09
2022-07-26T18:35:24.235Z,97760.75
2022-07-26T18:37:57.375Z,97763.34
2022-07-26T18:40:32.248Z,97764.22
2022-07-26T18:43:05.347Z,97766.00
2022-07-26T18:45:40.160Z,97764.25
2022-07-26T18:48:13.276Z,97759.00
2022-07-26T18:50:47.508Z,97763.31
2022-07-26T18:53:21.266Z,97759.84
2022-07-26T18:55:54.355Z,97763.31
2022-07-26T18:58:28.575Z,97769.41
2022-07-26T19:01:03.577Z,97768.53
2022-07-26T19:03:36.676Z,97777.22
2022-07-26T19:06:11.811Z,97777.19
2022-07-26T19:08:44.899Z,97781.53
2022-07-26T19:11:18.069Z,97780.63
2022-07-26T19:13:51.237Z,97790.16
2022-07-26T19:16:26.069Z,97793.59
2022-07-26T19:18:59.151Z,97797.91
2022-07-26T19:21:32.630Z,97799.63
2022-07-26T19:24:06.707Z,97805.63
2022-07-26T19:26:39.948Z,97813.44
2022-07-26T19:29:13.446Z,97812.50
2022-07-26T19:31:48.211Z,97817.66
2022-07-26T19:34:21.355Z,97820.25
2022-07-26T19:36:54.564Z,97828.06
2022-07-26T19:39:27.652Z,97829.78
2022-07-26T19:42:00.765Z,97834.06
2022-07-26T19:44:33.892Z,97840.16
2022-07-26T19:47:08.424Z,97835.81
2022-07-26T19:49:42.484Z,97839.28
2022-07-26T19:52:15.575Z,97845.34
2022-07-26T19:54:48.668Z,97844.44
2022-07-26T19:57:24.869Z,97844.38
2022-07-26T19:59:58.123Z,97844.38
2022-07-26T20:02:32.621Z,97852.09
2022-07-26T20:05:07.095Z,97849.50
2022-07-26T20:07:40.595Z,97856.44
2022-07-26T20:10:13.665Z,97847.75
2022-07-26T20:12:46.813Z,97851.19
2022-07-26T20:15:22.426Z,97853.75
2022-07-26T20:17:56.846Z,97852.81
2022-07-26T20:20:30.122Z,97851.88
2022-07-26T20:23:04.783Z,97845.69
2022-07-26T20:25:38.224Z,97851.69
2022-07-26T20:28:11.384Z,97856.84
2022-07-26T20:30:48.200Z,97855.97
2022-07-26T20:33:25.289Z,97855.97
2022-07-26T20:35:58.446Z,97851.59
2022-07-26T20:38:31.569Z,97855.84
2022-07-26T20:41:05.869Z,97861.88
2022-07-26T20:43:39.648Z,97865.25
2022-07-26T20:46:13.700Z,97861.72
2022-07-26T20:48:48.158Z,97868.50
2022-07-26T20:51:21.451Z,97864.97
2022-07-26T20:53:54.570Z,97864.13
2022-07-26T20:56:27.747Z,97870.16
2022-07-26T20:59:02.214Z,97867.53
2022-07-26T21:01:35.701Z,97868.25
2022-07-26T21:04:10.169Z,97857.69
2022-07-26T21:06:43.331Z,97868.97
2022-07-26T21:09:17.632Z,97868.09
2022-07-26T21:11:51.979Z,97868.94
2022-07-26T21:14:25.089Z,97869.59
2022-07-26T21:16:58.413Z,97856.66
2022-07-26T21:19:32.899Z,97862.72
2022-07-26T21:22:06.002Z,97855.66
2022-07-26T21:24:39.056Z,97857.31
2022-07-26T21:27:12.137Z,97866.78
2022-07-26T21:29:45.791Z,97867.56
2022-07-26T21:32:18.891Z,97863.19
2022-07-26T21:34:53.434Z,97861.19
2022-07-26T21:37:26.818Z,97865.44
2022-07-26T21:40:00.612Z,97861.84
2022-07-26T21:42:35.173Z,97859.19
2022-07-26T21:45:09.276Z,97870.34
2022-07-26T21:47:42.321Z,97863.38
2022-07-26T21:50:16.813Z,97858.13
2022-07-26T21:52:49.861Z,97858.03
2022-07-26T21:55:23.215Z,97864.03
2022-07-26T21:57:56.422Z,97863.13
2022-07-26T22:00:29.494Z,97866.50
2022-07-26T22:03:02.530Z,97861.16
2022-07-26T22:05:38.069Z,97864.44
2022-07-26T22:08:13.734Z,97864.41
2022-07-26T22:10:46.801Z,97863.44
2022-07-26T22:13:20.404Z,97871.13
2022-07-26T22:15:53.535Z,97870.31
2022-07-26T22:18:27.099Z,97867.56
2022-07-26T22:21:01.519Z,97869.25
2022-07-26T22:23:34.632Z,97875.88
2022-07-26T22:26:07.706Z,97879.84
2022-07-26T22:28:40.823Z,97869.31
2022-07-26T22:31:13.914Z,97858.91
2022-07-26T22:33:47.015Z,97866.69
2022-07-26T22:36:21.518Z,97868.44
2022-07-26T22:38:54.616Z,97870.25
2022-07-26T22:41:27.673Z,97869.34
2022-07-26T22:44:05.282Z,97870.28
2022-07-26T22:46:38.359Z,97872.81
2022-07-26T22:49:11.808Z,97874.66
2022-07-26T22:51:49.604Z,97865.84
2022-07-26T22:54:22.740Z,97869.81
2022-07-26T22:56:55.800Z,97876.69
2022-07-26T22:59:28.971Z,97870.41
2022-07-26T23:02:02.113Z,97866.09
2022-07-26T23:04:35.212Z,97872.16
2022-07-26T23:07:09.723Z,97882.53
2022-07-26T23:09:42.962Z,97874.69
2022-07-26T23:12:16.018Z,97872.91
2022-07-26T23:14:49.103Z,97872.84
2022-07-26T23:17:22.151Z,97882.47
2022-07-26T23:19:55.272Z,97874.59
2022-07-26T23:22:29.700Z,97876.22
2022-07-26T23:25:03.128Z,97876.22
2022-07-26T23:27:36.323Z,97876.22
2022-07-26T23:30:10.495Z,97873.66
2022-07-26T23:32:43.552Z,97872.78
2022-07-26T23:35:16.684Z,97870.94
2022-07-26T23:37:51.102Z,97870.81
2022-07-26T23:40:24.974Z,97871.59
2022-07-26T23:42:58.037Z,97880.22
2022-07-26T23:45:31.164Z,97877.50
2022-07-26T23:48:04.358Z,97874.72
2022-07-26T23:50:37.403Z,97878.97
2022-07-26T23:53:11.872Z,97883.22
2022-07-26T23:55:44.970Z,97883.22
2022-07-26T23:58:22.497Z,97883.09
